首页
METAR-TAF:

METAR-TAF

机场 :

广州白云国际机场

广州, 中华人民共和国

纬度: 23-10N, 经度: 113-20E, 海拔: 8米

当前天气观测

该预报发布于42分钟前的03:30 UTC
风速4节,风向北转东北,在北转西北东转东北之间变化
温度 30°C
湿度 79%
气压 1003 hPa
能见度10公里或以上
多云层高于5000英尺

METAR: ZGGG 280330Z 02002MPS 330V070 9999 BKN050 30/26 Q1003 NOSIG

时间: 12:12 (04:12 UTC)

预报

该预报发布于7小时和10分钟前的21:02 UTC
预报有效从28日的 00点(UTC)到 28日的 24点(UTC)
风速6节,风向
能見度: 6000
多云层高于3000英尺
短暂存在
从 28日的 08点(UTC)到 28日的 14点(UTC)
能見度: 3500
少量云层高于1000英尺
散云层高于3000英尺, 积雨云.
多云层高于3300英尺
雷暴, 雨,

TAF: ZGGG 272102Z 2800/2824 08003MPS 6000 BKN030 TX32/2807Z TN25/2822Z TEMPO 2808/2814 3500 TSRA FEW010 SCT030CB BKN033

超过4000个机场的气象观测和天气预报(METAR&TAF报告)。

可查询的气象台以黄色和红色小点在地图上表示。

将鼠标移到小点上方,可查看气象台名称。

然后点击查看天气观测和预报。

如需切换地图:点击带黑十字的绿色按钮放大地图;点击带横线的绿色按钮缩小地图;或者点击绿色箭头查看邻近地区的地图。


METAR-TAF: